sensor_id;sensor_type;location;lat;lon;timestamp;pressure;altitude;pressure_sealevel;temperature;humidity
50380;BME280;37474;59.468;18.040;2023-05-02T00:00:08;100354.16;;;5.89;100.00
50380;BME280;37474;59.468;18.040;2023-05-02T00:02:41;100343.88;;;5.89;100.00
50380;BME280;37474;59.468;18.040;2023-05-02T00:05:09;100343.16;;;5.85;100.00
50380;BME280;37474;59.468;18.040;2023-05-02T00:07:38;100300.13;;;5.67;100.00
50380;BME280;37474;59.468;18.040;2023-05-02T00:10:06;100342.47;;;5.80;100.00
50380;BME280;37474;59.468;18.040;2023-05-02T00:12:35;100340.28;;;5.93;100.00
50380;BME280;37474;59.468;18.040;2023-05-02T00:15:05;100344.59;;;5.92;100.00
50380;BME280;37474;59.468;18.040;2023-05-02T00:17:33;100347.97;;;5.94;100.00
50380;BME280;37474;59.468;18.040;2023-05-02T00:20:03;100348.28;;;5.85;100.00
50380;BME280;37474;59.468;18.040;2023-05-02T00:22:31;100351.63;;;5.87;100.00
50380;BME280;37474;59.468;18.040;2023-05-02T00:25:00;100347.19;;;5.92;100.00
50380;BME280;37474;59.468;18.040;2023-05-02T00:27:28;100338.34;;;5.76;100.00
50380;BME280;37474;59.468;18.040;2023-05-02T00:29:57;100353.09;;;5.71;100.00
50380;BME280;37474;59.468;18.040;2023-05-02T00:32:26;100347.53;;;5.60;100.00
50380;BME280;37474;59.468;18.040;2023-05-02T00:34:54;100352.19;;;5.50;100.00
50380;BME280;37474;59.468;18.040;2023-05-02T00:37:26;100358.72;;;5.10;100.00
50380;BME280;37474;59.468;18.040;2023-05-02T00:39:55;100349.34;;;4.84;100.00
50380;BME280;37474;59.468;18.040;2023-05-02T00:42:23;100349.94;;;4.67;100.00
50380;BME280;37474;59.468;18.040;2023-05-02T00:44:51;100358.41;;;4.43;100.00
50380;BME280;37474;59.468;18.040;2023-05-02T00:47:19;100361.78;;;4.45;100.00
50380;BME280;37474;59.468;18.040;2023-05-02T00:49:48;100360.25;;;4.39;100.00
50380;BME280;37474;59.468;18.040;2023-05-02T00:52:17;100367.53;;;4.25;100.00
50380;BME280;37474;59.468;18.040;2023-05-02T00:54:47;100367.53;;;4.25;100.00
50380;BME280;37474;59.468;18.040;2023-05-02T00:57:19;100373.78;;;4.16;100.00
50380;BME280;37474;59.468;18.040;2023-05-02T00:59:47;100358.44;;;4.15;100.00
50380;BME280;37474;59.468;18.040;2023-05-02T01:02:34;100367.72;;;4.19;100.00
50380;BME280;37474;59.468;18.040;2023-05-02T01:05:09;100357.97;;;4.02;100.00
50380;BME280;37474;59.468;18.040;2023-05-02T01:08:00;100368.38;;;3.97;100.00
50380;BME280;37474;59.468;18.040;2023-05-02T01:10:40;100339.91;;;3.77;100.00
50380;BME280;37474;59.468;18.040;2023-05-02T01:13:17;100381.16;;;3.99;100.00
50380;BME280;37474;59.468;18.040;2023-05-02T01:15:48;100382.09;;;3.96;100.00
50380;BME280;37474;59.468;18.040;2023-05-02T01:18:17;100371.72;;;4.00;100.00
50380;BME280;37474;59.468;18.040;2023-05-02T01:20:51;100381.50;;;3.87;100.00
50380;BME280;37474;59.468;18.040;2023-05-02T01:23:27;100390.22;;;3.81;100.00
50380;BME280;37474;59.468;18.040;2023-05-02T01:26:08;100380.94;;;3.77;100.00
50380;BME280;37474;59.468;18.040;2023-05-02T01:28:57;100391.00;;;3.54;100.00
50380;BME280;37474;59.468;18.040;2023-05-02T01:31:27;100386.72;;;3.56;100.00
50380;BME280;37474;59.468;18.040;2023-05-02T01:33:57;100384.25;;;3.51;100.00
50380;BME280;37474;59.468;18.040;2023-05-02T01:36:28;100390.94;;;3.57;100.00
50380;BME280;37474;59.468;18.040;2023-05-02T01:38:58;100398.88;;;3.48;100.00
50380;BME280;37474;59.468;18.040;2023-05-02T01:41:30;100391.25;;;3.46;100.00
50380;BME280;37474;59.468;18.040;2023-05-02T01:44:01;100397.28;;;3.43;100.00
50380;BME280;37474;59.468;18.040;2023-05-02T01:46:32;100399.22;;;3.35;100.00
50380;BME280;37474;59.468;18.040;2023-05-02T01:49:03;100378.88;;;3.29;100.00
50380;BME280;37474;59.468;18.040;2023-05-02T01:51:34;100402.56;;;3.37;100.00
50380;BME280;37474;59.468;18.040;2023-05-02T01:54:04;100361.31;;;3.15;100.00
50380;BME280;37474;59.468;18.040;2023-05-02T01:56:37;100398.88;;;3.48;100.00
50380;BME280;37474;59.468;18.040;2023-05-02T01:59:10;100402.72;;;3.31;100.00
50380;BME280;37474;59.468;18.040;2023-05-02T02:01:40;100383.41;;;3.20;100.00
50380;BME280;37474;59.468;18.040;2023-05-02T02:04:13;100394.38;;;3.25;100.00
50380;BME280;37474;59.468;18.040;2023-05-02T02:06:45;100392.78;;;3.21;100.00
50380;BME280;37474;59.468;18.040;2023-05-02T02:09:15;100403.22;;;3.13;100.00
50380;BME280;37474;59.468;18.040;2023-05-02T02:11:46;100417.22;;;3.32;100.00
50380;BME280;37474;59.468;18.040;2023-05-02T02:14:20;100432.09;;;3.20;100.00
50380;BME280;37474;59.468;18.040;2023-05-02T02:16:49;100418.19;;;3.28;100.00
50380;BME280;37474;59.468;18.040;2023-05-02T02:19:21;100412.63;;;3.12;100.00
50380;BME280;37474;59.468;18.040;2023-05-02T02:21:50;100425.44;;;3.12;100.00
50380;BME280;37474;59.468;18.040;2023-05-02T02:24:20;100416.09;;;3.10;100.00
50380;BME280;37474;59.468;18.040;2023-05-02T02:26:50;100415.34;;;3.06;100.00
50380;BME280;37474;59.468;18.040;2023-05-02T02:29:19;100422.19;;;3.06;100.00
50380;BME280;37474;59.468;18.040;2023-05-02T02:31:47;100423.94;;;3.04;100.00
50380;BME280;37474;59.468;18.040;2023-05-02T02:34:15;100423.19;;;3.00;100.00
50380;BME280;37474;59.468;18.040;2023-05-02T02:36:51;100421.53;;;2.98;100.00
50380;BME280;37474;59.468;18.040;2023-05-02T02:39:34;100432.63;;;2.98;100.00
50380;BME280;37474;59.468;18.040;2023-05-02T02:42:09;100432.97;;;2.84;100.00
50380;BME280;37474;59.468;18.040;2023-05-02T02:44:47;100430.38;;;2.86;100.00
50380;BME280;37474;59.468;18.040;2023-05-02T02:47:23;100435.50;;;2.86;100.00
50380;BME280;37474;59.468;18.040;2023-05-02T02:50:04;100438.97;;;2.83;100.00
50380;BME280;37474;59.468;18.040;2023-05-02T02:52:39;100441.59;;;2.80;100.00
50380;BME280;37474;59.468;18.040;2023-05-02T02:55:18;100445.88;;;2.80;100.00
50380;BME280;37474;59.468;18.040;2023-05-02T02:57:59;100433.16;;;2.77;100.00
50380;BME280;37474;59.468;18.040;2023-05-02T03:00:31;100438.97;;;2.83;100.00
50380;BME280;37474;59.468;18.040;2023-05-02T03:03:00;100446.88;;;2.74;100.00
50380;BME280;37474;59.468;18.040;2023-05-02T03:05:30;100452.13;;;2.68;100.00
50380;BME280;37474;59.468;18.040;2023-05-02T03:07:59;100454.25;;;2.51;100.00
50380;BME280;37474;59.468;18.040;2023-05-02T03:10:30;100463.75;;;2.46;100.00
50380;BME280;37474;59.468;18.040;2023-05-02T03:12:59;100455.97;;;2.49;100.00
50380;BME280;37474;59.468;18.040;2023-05-02T03:18:31;100466.25;;;2.47;100.00
50380;BME280;37474;59.468;18.040;2023-05-02T03:21:00;100469.97;;;2.32;100.00
50380;BME280;37474;59.468;18.040;2023-05-02T03:23:28;100476.81;;;2.32;100.00
50380;BME280;37474;59.468;18.040;2023-05-02T03:25:56;100477.00;;;2.24;100.00
50380;BME280;37474;59.468;18.040;2023-05-02T03:28:24;100481.03;;;2.34;100.00
50380;BME280;37474;59.468;18.040;2023-05-02T03:30:52;100485.34;;;2.32;100.00
50380;BME280;37474;59.468;18.040;2023-05-02T03:33:20;100490.59;;;2.26;100.00
50380;BME280;37474;59.468;18.040;2023-05-02T03:35:49;100495.06;;;2.17;100.00
50380;BME280;37474;59.468;18.040;2023-05-02T03:38:18;100491.69;;;2.15;100.00
50380;BME280;37474;59.468;18.040;2023-05-02T03:40:46;100497.84;;;2.06;100.00
50380;BME280;37474;59.468;18.040;2023-05-02T03:43:14;100496.19;;;2.03;100.00
50380;BME280;37474;59.468;18.040;2023-05-02T03:45:42;100499.56;;;2.04;100.00
50380;BME280;37474;59.468;18.040;2023-05-02T03:48:12;100503.72;;;2.09;100.00
50380;BME280;37474;59.468;18.040;2023-05-02T03:50:40;100499.44;;;2.11;100.00
50380;BME280;37474;59.468;18.040;2023-05-02T03:53:10;100499.44;;;2.10;100.00
50380;BME280;37474;59.468;18.040;2023-05-02T03:55:39;100506.28;;;2.11;100.00
50380;BME280;37474;59.468;18.040;2023-05-02T03:58:09;100507.94;;;2.12;100.00
50380;BME280;37474;59.468;18.040;2023-05-02T04:00:37;100514.06;;;2.03;100.00
50380;BME280;37474;59.468;18.040;2023-05-02T04:03:05;100509.72;;;2.08;100.00
50380;BME280;37474;59.468;18.040;2023-05-02T04:05:34;100529.38;;;2.06;100.00
50380;BME280;37474;59.468;18.040;2023-05-02T04:08:02;100525.97;;;2.06;100.00
50380;BME280;37474;59.468;18.040;2023-05-02T04:10:32;100499.88;;;1.89;100.00
50380;BME280;37474;59.468;18.040;2023-05-02T04:13:00;100500.63;;;1.95;100.00
50380;BME280;37474;59.468;18.040;2023-05-02T04:15:29;100533.69;;;2.03;100.00
50380;BME280;37474;59.468;18.040;2023-05-02T04:17:57;100531.09;;;2.04;100.00
50380;BME280;37474;59.468;18.040;2023-05-02T04:20:26;100537.94;;;2.04;100.00
50380;BME280;37474;59.468;18.040;2023-05-02T04:22:54;100547.28;;;2.05;100.00
50380;BME280;37474;59.468;18.040;2023-05-02T04:25:22;100549.66;;;2.14;100.00
50380;BME280;37474;59.468;18.040;2023-05-02T04:27:51;100555.69;;;2.10;100.00
50380;BME280;37474;59.468;18.040;2023-05-02T04:30:19;100547.19;;;2.11;100.00
50380;BME280;37474;59.468;18.040;2023-05-02T04:32:48;100558.19;;;2.15;100.00
50380;BME280;37474;59.468;18.040;2023-05-02T04:35:16;100555.66;;;2.13;100.00
50380;BME280;37474;59.468;18.040;2023-05-02T04:37:44;100564.38;;;2.03;100.00
50380;BME280;37474;59.468;18.040;2023-05-02T04:40:13;100570.28;;;2.05;100.00
50380;BME280;37474;59.468;18.040;2023-05-02T04:42:41;100564.34;;;2.06;100.00
50380;BME280;37474;59.468;18.040;2023-05-02T04:45:10;100566.91;;;2.04;100.00
50380;BME280;37474;59.468;18.040;2023-05-02T04:47:38;100572.84;;;2.05;100.00
50380;BME280;37474;59.468;18.040;2023-05-02T04:50:08;100570.28;;;2.05;100.00
50380;BME280;37474;59.468;18.040;2023-05-02T04:52:36;100576.97;;;2.14;100.00
50380;BME280;37474;59.468;18.040;2023-05-02T04:55:05;100582.16;;;2.09;100.00
50380;BME280;37474;59.468;18.040;2023-05-02T04:57:33;100578.69;;;2.13;100.00
50380;BME280;37474;59.468;18.040;2023-05-02T05:00:01;100584.59;;;2.15;100.00
50380;BME280;37474;59.468;18.040;2023-05-02T05:02:31;100589.69;;;2.17;100.00
50380;BME280;37474;59.468;18.040;2023-05-02T05:05:00;100583.53;;;2.25;100.00
50380;BME280;37474;59.468;18.040;2023-05-02T05:07:28;100587.03;;;2.23;100.00
50380;BME280;37474;59.468;18.040;2023-05-02T05:09:56;100586.81;;;2.32;100.00
50380;BME280;37474;59.468;18.040;2023-05-02T05:12:25;100596.28;;;2.28;100.00
50380;BME280;37474;59.468;18.040;2023-05-02T05:14:53;100603.09;;;2.29;100.00
50380;BME280;37474;59.468;18.040;2023-05-02T05:17:21;100597.22;;;2.24;100.00
50380;BME280;37474;59.468;18.040;2023-05-02T05:19:51;100602.94;;;2.37;100.00
50380;BME280;37474;59.468;18.040;2023-05-02T05:22:19;100598.91;;;2.25;100.00
50380;BME280;37474;59.468;18.040;2023-05-02T05:24:51;100610.09;;;2.20;100.00
50380;BME280;37474;59.468;18.040;2023-05-02T05:27:19;100613.44;;;2.23;100.00
50380;BME280;37474;59.468;18.040;2023-05-02T05:29:47;100610.69;;;2.34;100.00
50380;BME280;37474;59.468;18.040;2023-05-02T05:32:15;100610.75;;;2.29;100.00
50380;BME280;37474;59.468;18.040;2023-05-02T05:34:43;100613.38;;;2.26;100.00
50380;BME280;37474;59.468;18.040;2023-05-02T05:37:13;100614.97;;;2.32;100.00
50380;BME280;37474;59.468;18.040;2023-05-02T05:39:41;100619.25;;;2.31;100.00
50380;BME280;37474;59.468;18.040;2023-05-02T05:42:09;100596.47;;;2.19;100.00
50380;BME280;37474;59.468;18.040;2023-05-02T05:44:38;100609.78;;;2.35;100.00
50380;BME280;37474;59.468;18.040;2023-05-02T05:47:06;100617.50;;;2.33;100.00
50380;BME280;37474;59.468;18.040;2023-05-02T05:49:34;100625.34;;;2.24;100.00
50380;BME280;37474;59.468;18.040;2023-05-02T05:52:04;100625.19;;;2.33;100.00
50380;BME280;37474;59.468;18.040;2023-05-02T05:54:34;100631.97;;;2.34;100.00
50380;BME280;37474;59.468;18.040;2023-05-02T05:57:02;100637.16;;;2.31;100.00
50380;BME280;37474;59.468;18.040;2023-05-02T05:59:30;100636.34;;;2.29;100.00
50380;BME280;37474;59.468;18.040;2023-05-02T06:02:01;100646.28;;;2.45;100.00
50380;BME280;37474;59.468;18.040;2023-05-02T06:04:29;100613.13;;;2.38;100.00
50380;BME280;37474;59.468;18.040;2023-05-02T06:06:57;100655.38;;;2.59;100.00
50380;BME280;37474;59.468;18.040;2023-05-02T06:09:25;100657.88;;;2.62;100.00
50380;BME280;37474;59.468;18.040;2023-05-02T06:11:55;100657.09;;;2.59;100.00
50380;BME280;37474;59.468;18.040;2023-05-02T06:14:23;100656.41;;;2.49;100.00
50380;BME280;37474;59.468;18.040;2023-05-02T06:16:51;100659.63;;;2.59;100.00
50380;BME280;37474;59.468;18.040;2023-05-02T06:19:19;100670.72;;;2.59;100.00
50380;BME280;37474;59.468;18.040;2023-05-02T06:21:47;100674.97;;;2.60;100.00
50380;BME280;37474;59.468;18.040;2023-05-02T06:24:15;100675.50;;;2.78;100.00
50380;BME280;37474;59.468;18.040;2023-05-02T06:26:43;100676.59;;;3.05;100.00
50380;BME280;37474;59.468;18.040;2023-05-02T06:29:13;100674.94;;;3.04;100.00
50380;BME280;37474;59.468;18.040;2023-05-02T06:31:42;100683.06;;;2.82;100.00
50380;BME280;37474;59.468;18.040;2023-05-02T06:34:10;100679.88;;;2.71;100.00
50380;BME280;37474;59.468;18.040;2023-05-02T06:36:38;100624.44;;;2.27;100.00
50380;BME280;37474;59.468;18.040;2023-05-02T06:39:09;100690.72;;;2.82;100.00
50380;BME280;37474;59.468;18.040;2023-05-02T06:41:37;100696.69;;;2.84;100.00
50380;BME280;37474;59.468;18.040;2023-05-02T06:44:05;100709.44;;;2.86;100.00
50380;BME280;37474;59.468;18.040;2023-05-02T06:46:34;100703.19;;;3.01;100.00
50380;BME280;37474;59.468;18.040;2023-05-02T06:49:02;100692.38;;;2.86;100.00
50380;BME280;37474;59.468;18.040;2023-05-02T06:51:31;100715.16;;;2.99;100.00
50380;BME280;37474;59.468;18.040;2023-05-02T06:53:59;100717.53;;;3.08;100.00
50380;BME280;37474;59.468;18.040;2023-05-02T06:56:27;100727.06;;;3.01;100.00
50380;BME280;37474;59.468;18.040;2023-05-02T06:58:55;100729.97;;;2.83;100.00
50380;BME280;37474;59.468;18.040;2023-05-02T07:01:23;100732.88;;;2.66;100.00
50380;BME280;37474;59.468;18.040;2023-05-02T07:03:53;100739.53;;;2.75;100.00
50380;BME280;37474;59.468;18.040;2023-05-02T07:06:21;100737.75;;;2.80;100.00
50380;BME280;37474;59.468;18.040;2023-05-02T07:08:49;100737.75;;;2.80;100.00
50380;BME280;37474;59.468;18.040;2023-05-02T07:11:17;100750.50;;;2.81;100.00
50380;BME280;37474;59.468;18.040;2023-05-02T07:13:45;100746.19;;;2.85;100.00
50380;BME280;37474;59.468;18.040;2023-05-02T07:16:13;100761.63;;;2.80;100.00
50380;BME280;37474;59.468;18.040;2023-05-02T07:18:41;100765.94;;;2.78;100.00
50380;BME280;37474;59.468;18.040;2023-05-02T07:21:12;100761.53;;;2.85;100.00
50380;BME280;37474;59.468;18.040;2023-05-02T07:23:41;100772.66;;;2.82;100.00
50380;BME280;37474;59.468;18.040;2023-05-02T07:26:09;100779.56;;;2.79;100.00
50380;BME280;37474;59.468;18.040;2023-05-02T07:28:37;100781.06;;;2.90;100.00
50380;BME280;37474;59.468;18.040;2023-05-02T07:31:05;100778.84;;;3.17;100.00
50380;BME280;37474;59.468;18.040;2023-05-02T07:33:33;100800.97;;;3.20;100.00
50380;BME280;37474;59.468;18.040;2023-05-02T07:36:01;100791.59;;;3.18;100.00
50380;BME280;37474;59.468;18.040;2023-05-02T07:38:31;100803.81;;;3.48;100.00
50380;BME280;37474;59.468;18.040;2023-05-02T07:40:59;100807.06;;;3.56;100.00
50380;BME280;37474;59.468;18.040;2023-05-02T07:43:27;100824.16;;;3.55;100.00
50380;BME280;37474;59.468;18.040;2023-05-02T07:45:55;100835.91;;;3.67;100.00
50380;BME280;37474;59.468;18.040;2023-05-02T07:48:23;100828.44;;;3.93;100.00
50380;BME280;37474;59.468;18.040;2023-05-02T07:50:53;100839.41;;;4.02;100.00
50380;BME280;37474;59.468;18.040;2023-05-02T07:53:21;100848.22;;;3.88;100.00
50380;BME280;37474;59.468;18.040;2023-05-02T07:55:51;100843.59;;;4.06;100.00
50380;BME280;37474;59.468;18.040;2023-05-02T07:58:19;100848.97;;;3.95;100.00
50380;BME280;37474;59.468;18.040;2023-05-02T08:00:47;100849.47;;;4.09;100.00
50380;BME280;37474;59.468;18.040;2023-05-02T08:03:15;100859.72;;;4.09;100.00
50380;BME280;37474;59.468;18.040;2023-05-02T08:05:44;100869.50;;;4.31;100.00
50380;BME280;37474;59.468;18.040;2023-05-02T08:08:12;100871.81;;;4.06;100.00
50380;BME280;37474;59.468;18.040;2023-05-02T08:10:40;100873.31;;;3.76;100.00
50380;BME280;37474;59.468;18.040;2023-05-02T08:13:10;100890.78;;;3.57;100.00
50380;BME280;37474;59.468;18.040;2023-05-02T08:15:40;100878.38;;;3.79;100.00
50380;BME280;37474;59.468;18.040;2023-05-02T08:18:08;100885.00;;;3.89;100.00
50380;BME280;37474;59.468;18.040;2023-05-02T08:20:36;100890.19;;;3.86;99.09
50380;BME280;37474;59.468;18.040;2023-05-02T08:23:04;100895.97;;;3.95;99.66
50380;BME280;37474;59.468;18.040;2023-05-02T08:25:32;100903.41;;;4.08;100.00
50380;BME280;37474;59.468;18.040;2023-05-02T08:28:00;100906.19;;;3.97;98.11
50380;BME280;37474;59.468;18.040;2023-05-02T08:30:30;100914.09;;;4.27;99.28
50380;BME280;37474;59.468;18.040;2023-05-02T08:32:58;100912.75;;;4.47;98.48
50380;BME280;37474;59.468;18.040;2023-05-02T08:35:27;100920.94;;;4.63;91.56
50380;BME280;37474;59.468;18.040;2023-05-02T08:37:55;100921.78;;;4.98;93.03
50380;BME280;37474;59.468;18.040;2023-05-02T08:40:24;100919.44;;;5.23;87.20
50380;BME280;37474;59.468;18.040;2023-05-02T08:43:07;100928.41;;;5.41;86.57
50380;BME280;37474;59.468;18.040;2023-05-02T08:45:40;100920.09;;;5.62;85.01
50380;BME280;37474;59.468;18.040;2023-05-02T08:48:09;100928.34;;;5.73;85.97
50380;BME280;37474;59.468;18.040;2023-05-02T08:50:38;100900.97;;;5.09;88.72
50380;BME280;37474;59.468;18.040;2023-05-02T08:53:08;100948.75;;;5.16;91.51
50380;BME280;37474;59.468;18.040;2023-05-02T08:55:38;100956.38;;;4.85;91.05
50380;BME280;37474;59.468;18.040;2023-05-02T08:58:07;100962.88;;;4.64;92.86
50380;BME280;37474;59.468;18.040;2023-05-02T09:00:40;100958.91;;;4.50;93.38
50380;BME280;37474;59.468;18.040;2023-05-02T09:03:14;100965.78;;;5.20;89.72
50380;BME280;37474;59.468;18.040;2023-05-02T09:05:52;100978.59;;;5.55;89.94
50380;BME280;37474;59.468;18.040;2023-05-02T09:08:21;100957.06;;;5.89;85.86
50380;BME280;37474;59.468;18.040;2023-05-02T09:10:50;100941.78;;;6.14;78.67
50380;BME280;37474;59.468;18.040;2023-05-02T09:13:31;100966.00;;;6.37;80.74
50380;BME280;37474;59.468;18.040;2023-05-02T09:16:02;100979.72;;;6.07;82.49
50380;BME280;37474;59.468;18.040;2023-05-02T09:18:32;100980.63;;;6.06;84.48
50380;BME280;37474;59.468;18.040;2023-05-02T09:21:03;100987.06;;;5.25;83.88
50380;BME280;37474;59.468;18.040;2023-05-02T09:23:39;100972.53;;;5.24;89.88
50380;BME280;37474;59.468;18.040;2023-05-02T09:26:12;100999.53;;;6.05;83.86
50380;BME280;37474;59.468;18.040;2023-05-02T09:28:42;100985.03;;;6.31;84.24
50380;BME280;37474;59.468;18.040;2023-05-02T09:31:13;100982.75;;;7.04;80.78
50380;BME280;37474;59.468;18.040;2023-05-02T09:33:53;100987.31;;;6.96;77.42
50380;BME280;37474;59.468;18.040;2023-05-02T09:36:21;100991.78;;;7.18;75.12
50380;BME280;37474;59.468;18.040;2023-05-02T09:38:49;100997.72;;;7.70;72.82
50380;BME280;37474;59.468;18.040;2023-05-02T09:41:17;101007.09;;;7.22;67.95
50380;BME280;37474;59.468;18.040;2023-05-02T09:43:54;101000.47;;;7.40;63.78
50380;BME280;37474;59.468;18.040;2023-05-02T09:46:24;101005.78;;;7.09;63.07
50380;BME280;37474;59.468;18.040;2023-05-02T09:48:53;101003.47;;;7.01;69.11
50380;BME280;37474;59.468;18.040;2023-05-02T09:51:22;101013.38;;;6.87;66.96
50380;BME280;37474;59.468;18.040;2023-05-02T09:53:50;101005.81;;;6.25;72.58
50380;BME280;37474;59.468;18.040;2023-05-02T09:56:19;101029.88;;;6.24;73.06
50380;BME280;37474;59.468;18.040;2023-05-02T09:58:49;101016.66;;;6.92;75.74
50380;BME280;37474;59.468;18.040;2023-05-02T10:01:18;101022.78;;;7.66;72.00
50380;BME280;37474;59.468;18.040;2023-05-02T10:03:48;101024.94;;;7.53;64.27
50380;BME280;37474;59.468;18.040;2023-05-02T10:06:18;101021.47;;;7.54;65.22
50380;BME280;37474;59.468;18.040;2023-05-02T10:08:47;101030.97;;;7.79;64.47
50380;BME280;37474;59.468;18.040;2023-05-02T10:11:16;101024.69;;;7.86;70.92
50380;BME280;37474;59.468;18.040;2023-05-02T10:13:44;101022.84;;;7.89;60.34
50380;BME280;37474;59.468;18.040;2023-05-02T10:16:15;101021.88;;;7.92;57.27
50380;BME280;37474;59.468;18.040;2023-05-02T10:18:57;101018.53;;;8.37;60.95
50380;BME280;37474;59.468;18.040;2023-05-02T10:21:26;101026.31;;;8.59;57.40
50380;BME280;37474;59.468;18.040;2023-05-02T10:23:55;101032.28;;;8.37;59.57
50380;BME280;37474;59.468;18.040;2023-05-02T10:26:24;101032.25;;;7.65;57.46
50380;BME280;37474;59.468;18.040;2023-05-02T10:28:55;100999.84;;;7.33;63.82
50380;BME280;37474;59.468;18.040;2023-05-02T10:31:24;101042.94;;;7.03;61.34
50380;BME280;37474;59.468;18.040;2023-05-02T10:33:55;101006.25;;;6.95;60.62
50380;BME280;37474;59.468;18.040;2023-05-02T10:36:25;101046.69;;;7.46;62.58
50380;BME280;37474;59.468;18.040;2023-05-02T10:38:54;101043.13;;;8.00;62.32
50380;BME280;37474;59.468;18.040;2023-05-02T10:41:24;101048.81;;;8.32;60.13
50380;BME280;37474;59.468;18.040;2023-05-02T10:43:57;101054.41;;;8.68;59.38
50380;BME280;37474;59.468;18.040;2023-05-02T10:46:29;101063.41;;;8.58;59.48
50380;BME280;37474;59.468;18.040;2023-05-02T10:49:07;101059.16;;;8.32;56.88
50380;BME280;37474;59.468;18.040;2023-05-02T10:51:37;101067.28;;;8.91;54.83
50380;BME280;37474;59.468;18.040;2023-05-02T10:54:20;101062.59;;;8.32;55.17
50380;BME280;37474;59.468;18.040;2023-05-02T10:57:01;101046.41;;;7.55;56.91
50380;BME280;37474;59.468;18.040;2023-05-02T10:59:33;101040.22;;;7.08;58.44
50380;BME280;37474;59.468;18.040;2023-05-02T11:02:01;101089.50;;;6.69;66.02
50380;BME280;37474;59.468;18.040;2023-05-02T11:05:04;101100.94;;;5.98;73.28
50380;BME280;37474;59.468;18.040;2023-05-02T11:07:33;101093.72;;;5.78;72.39
50380;BME280;37474;59.468;18.040;2023-05-02T11:10:23;101094.59;;;6.12;75.24
50380;BME280;37474;59.468;18.040;2023-05-02T11:12:52;101098.19;;;6.06;75.28
50380;BME280;37474;59.468;18.040;2023-05-02T11:15:54;101089.59;;;6.66;74.13
50380;BME280;37474;59.468;18.040;2023-05-02T11:18:23;101085.41;;;7.46;69.20
50380;BME280;37474;59.468;18.040;2023-05-02T11:21:25;101089.16;;;7.62;64.12
50380;BME280;37474;59.468;18.040;2023-05-02T11:27:37;101090.31;;;9.19;62.91
50380;BME280;37474;59.468;18.040;2023-05-02T11:30:07;101103.53;;;8.90;51.81
50380;BME280;37474;59.468;18.040;2023-05-02T11:33:10;101094.91;;;9.55;51.63
50380;BME280;37474;59.468;18.040;2023-05-02T11:35:41;101113.31;;;8.82;50.85
50380;BME280;37474;59.468;18.040;2023-05-02T11:38:13;101106.56;;;9.01;52.21
50380;BME280;37474;59.468;18.040;2023-05-02T11:40:49;101108.13;;;9.05;53.13
50380;BME280;37474;59.468;18.040;2023-05-02T11:43:18;101106.38;;;9.48;52.90
50380;BME280;37474;59.468;18.040;2023-05-02T11:45:48;101110.69;;;9.27;51.28
50380;BME280;37474;59.468;18.040;2023-05-02T11:48:17;101121.75;;;9.52;54.25
50380;BME280;37474;59.468;18.040;2023-05-02T11:50:47;101120.13;;;9.50;50.91
50380;BME280;37474;59.468;18.040;2023-05-02T11:53:19;101084.28;;;8.75;52.64
50380;BME280;37474;59.468;18.040;2023-05-02T11:55:51;101128.25;;;9.19;52.00
50380;BME280;37474;59.468;18.040;2023-05-02T11:58:21;101130.03;;;9.81;50.12
50380;BME280;37474;59.468;18.040;2023-05-02T12:00:53;101129.25;;;9.59;46.81
50380;BME280;37474;59.468;18.040;2023-05-02T12:03:26;101134.00;;;9.69;47.27
50380;BME280;37474;59.468;18.040;2023-05-02T12:05:55;101144.09;;;9.96;44.58
50380;BME280;37474;59.468;18.040;2023-05-02T12:08:27;101153.16;;;10.47;46.10
50380;BME280;37474;59.468;18.040;2023-05-02T12:10:56;101147.31;;;10.21;45.42
50380;BME280;37474;59.468;18.040;2023-05-02T12:13:25;101144.84;;;9.99;44.75
50380;BME280;37474;59.468;18.040;2023-05-02T12:15:54;101145.13;;;9.29;46.54
50380;BME280;37474;59.468;18.040;2023-05-02T12:18:23;101152.50;;;9.38;45.40
50380;BME280;37474;59.468;18.040;2023-05-02T12:20:54;101155.75;;;9.21;45.35
50380;BME280;37474;59.468;18.040;2023-05-02T12:23:23;101150.78;;;9.17;44.85
50380;BME280;37474;59.468;18.040;2023-05-02T12:25:54;101163.09;;;8.87;46.39
50380;BME280;37474;59.468;18.040;2023-05-02T12:28:22;101174.69;;;8.77;44.31
50380;BME280;37474;59.468;18.040;2023-05-02T12:30:51;101162.50;;;8.80;44.09
50380;BME280;37474;59.468;18.040;2023-05-02T12:33:18;101171.31;;;8.75;43.28
50380;BME280;37474;59.468;18.040;2023-05-02T12:35:47;101164.56;;;8.70;43.16
50380;BME280;37474;59.468;18.040;2023-05-02T12:38:16;101166.28;;;8.95;42.26
50380;BME280;37474;59.468;18.040;2023-05-02T12:40:50;101131.84;;;9.37;43.73
50380;BME280;37474;59.468;18.040;2023-05-02T12:43:20;101169.25;;;9.51;42.68
50380;BME280;37474;59.468;18.040;2023-05-02T12:45:49;101173.03;;;10.27;39.90
50380;BME280;37474;59.468;18.040;2023-05-02T12:48:22;101174.94;;;9.60;40.32
50380;BME280;37474;59.468;18.040;2023-05-02T12:50:50;101187.09;;;9.79;40.71
50380;BME280;37474;59.468;18.040;2023-05-02T12:53:37;101200.38;;;10.13;41.43
50380;BME280;37474;59.468;18.040;2023-05-02T12:56:06;101190.59;;;10.19;42.49
50380;BME280;37474;59.468;18.040;2023-05-02T12:58:41;101191.34;;;9.81;41.54
50380;BME280;37474;59.468;18.040;2023-05-02T13:01:09;101205.72;;;9.67;41.90
50380;BME280;37474;59.468;18.040;2023-05-02T13:03:38;101207.63;;;9.18;42.25
50380;BME280;37474;59.468;18.040;2023-05-02T13:06:07;101208.22;;;9.25;41.81